Stations météo

réclame
Mon MeteoGroup
Sule Skerry, Grande-Bretagne (3010): Température de l'air & dewpoint: 12.01.2019 12:00:00 - 18.01.2019 12:00:00 (GMT)Sule Skerry, Grande-Bretagne (3010): Vitesse du vent & gusts: 12.01.2019 12:00:00 - 18.01.2019 12:00:00 (GMT)Sule Skerry, Grande-Bretagne (3010): Direction du vent: 12.01.2019 12:00:00 - 18.01.2019 12:00:00 (GMT)Sule Skerry, Grande-Bretagne (3010): reduced air pressure: 12.01.2019 12:00:00 - 18.01.2019 12:00:00 (GMT)
Date & Time tt [°C] td [°C] ff [km/h] ff [knt] fx [km/h] fx [knt] dd ppp [hPa]
18.01.2019 12:00:00 - - - - - - - -
18.01.2019 11:00:00 4,7 -1,3 29 16 - - SSE 1010,9
18.01.2019 10:00:00 4,2 -1,6 31 17 - - SSE 1011,3
18.01.2019 09:00:00 4,3 -1,2 31 17 - - SSE 1011,3
18.01.2019 08:00:00 4,6 -0,8 29 16 - - SSE 1011,3
18.01.2019 07:00:00 4,9 -0,9 29 16 - - SSE 1011,3
18.01.2019 06:00:00 5,1 -0,3 26 14 - - SSE 1011,7
18.01.2019 05:00:00 5,2 -0,9 18 10 - - SSE 1011,9
18.01.2019 04:00:00 4,9 0,4 22 12 - - SSE 1012,3
18.01.2019 03:00:00 4,3 0,9 18 10 - - SE 1012,9
18.01.2019 02:00:00 4,1 0,5 15 8 - - SE 1013,3
18.01.2019 01:00:00 3,7 -0,1 22 12 - - SSE 1013,7
18.01.2019 00:00:00 5,0 -1,1 9 5 - - SE 1013,9
17.01.2019 23:00:00 4,5 -0,7 5 3 - - ENE 1014,3
17.01.2019 22:00:00 4,2 -1,1 11 6 - - ENE 1014,3
17.01.2019 21:00:00 3,9 -1,4 16 9 - - WSW 1014,9
17.01.2019 20:00:00 4,1 -0,9 13 7 - - SSW 1014,7
17.01.2019 19:00:00 4,0 -0,8 9 5 - - NE 1014,9
17.01.2019 18:00:00 4,8 -1,5 9 5 - - N 1014,9
17.01.2019 17:00:00 4,8 -1,3 18 10 - - NNW 1014,7
17.01.2019 16:00:00 4,9 -1,5 21 11 - - N 1014,5
17.01.2019 15:00:00 4,9 -0,4 29 16 - - N 1014,5
17.01.2019 14:00:00 5,3 -1,4 26 14 - - N 1014,3
17.01.2019 13:00:00 5,4 -0,7 31 17 55 30 N 1013,9
17.01.2019 12:00:00 5,7 0,3 31 17 52 28 NNW 1013,5
17.01.2019 11:00:00 5,7 0,0 34 18 52 28 N 1013,3
17.01.2019 10:00:00 6,0 -0,5 39 21 57 31 N 1012,5
17.01.2019 09:00:00 5,9 0,8 34 18 70 38 N 1011,7
17.01.2019 08:00:00 6,1 -0,9 46 25 70 38 N 1010,7
17.01.2019 07:00:00 5,6 1,0 52 28 83 45 N 1009,7
17.01.2019 06:00:00 4,6 -0,6 50 27 83 45 N 1008,7
17.01.2019 05:00:00 5,4 0,8 42 23 91 49 N 1007,7
17.01.2019 04:00:00 5,1 0,8 59 32 87 47 N 1006,5
17.01.2019 03:00:00 4,9 -0,5 57 31 78 42 N 1005,1
17.01.2019 02:00:00 3,3 0,1 52 28 96 52 NNW 1004,3
17.01.2019 01:00:00 1,6 -1,4 65 35 96 52 NNW 1003,7
17.01.2019 00:00:00 4,5 -1,8 54 29 83 45 NNW 1002,5
16.01.2019 23:00:00 4,3 -1,8 61 33 87 47 NNW 1002,1
16.01.2019 22:00:00 2,4 -2,1 48 26 91 49 N 1001,5
16.01.2019 21:00:00 4,2 -2,2 57 31 83 45 NNW 1000,1
16.01.2019 20:00:00 3,6 -2,5 52 28 70 38 N 999,5
16.01.2019 19:00:00 2,4 -2,3 54 29 81 44 N 998,9
16.01.2019 18:00:00 4,5 -0,1 54 29 81 44 NNW 997,3
16.01.2019 17:00:00 3,6 0,5 59 32 80 43 N 996,3
16.01.2019 16:00:00 3,8 1,6 57 31 76 41 N 994,9
16.01.2019 15:00:00 4,3 2,1 46 25 59 32 NNE 993,3
16.01.2019 14:00:00 5,1 2,1 29 16 - - N 992,7
16.01.2019 13:00:00 5,2 2,1 18 10 - - N 992,3
16.01.2019 12:00:00 5,2 1,8 26 14 - - N 992,3
16.01.2019 11:00:00 5,3 2,0 13 7 - - N 991,9
16.01.2019 10:00:00 5,7 1,3 13 7 - - NNE 991,5
16.01.2019 09:00:00 6,2 2,0 9 5 - - NNW 991,3
16.01.2019 08:00:00 6,4 2,6 13 7 - - NNW 990,7
16.01.2019 07:00:00 6,3 3,1 16 9 - - NNW 990,5
16.01.2019 06:00:00 6,3 3,0 22 12 - - NNW 990,7
16.01.2019 05:00:00 6,4 3,3 34 18 52 28 NNW 990,5
16.01.2019 04:00:00 6,1 3,6 42 23 65 35 NNW 990,7
16.01.2019 03:00:00 6,2 3,3 52 28 85 46 WNW 990,1
16.01.2019 02:00:00 7,3 3,7 65 35 87 47 W 989,0
16.01.2019 01:00:00 7,5 4,0 65 35 91 49 W 988,2
16.01.2019 00:00:00 7,7 4,5 67 36 91 49 W 988,2
15.01.2019 23:00:00 8,2 5,2 63 34 83 45 WSW 988,6
15.01.2019 22:00:00 9,6 8,2 50 27 74 40 SW 989,0
15.01.2019 21:00:00 9,3 8,1 48 26 74 40 SW 990,0
15.01.2019 20:00:00 8,8 7,4 42 23 57 31 SW 991,6
15.01.2019 19:00:00 8,7 7,3 35 19 52 28 SW 993,2
15.01.2019 18:00:00 7,8 6,5 18 10 - - S 994,9
15.01.2019 17:00:00 5,8 4,0 18 10 - - SE 996,7
15.01.2019 16:00:00 5,9 3,8 8 4 - - E 997,9
15.01.2019 15:00:00 6,0 3,7 9 5 - - WNW 998,9
15.01.2019 14:00:00 6,2 3,8 16 9 - - NW 1000,1
15.01.2019 13:00:00 6,8 4,3 28 15 - - W 1001,1
15.01.2019 12:00:00 6,8 3,8 28 15 - - W 1001,7
15.01.2019 11:00:00 7,7 3,6 29 16 52 28 W 1002,5
15.01.2019 10:00:00 7,9 2,1 35 19 52 28 W 1002,7
15.01.2019 09:00:00 8,5 2,3 42 23 63 34 WNW 1002,7
15.01.2019 08:00:00 8,4 3,5 42 23 63 34 W 1002,5
15.01.2019 07:00:00 8,6 3,6 50 27 67 36 WNW 1002,5
15.01.2019 06:00:00 8,5 3,4 50 27 68 37 WNW 1002,5
15.01.2019 05:00:00 8,6 4,4 48 26 70 38 WNW 1002,9
15.01.2019 04:00:00 9,0 4,8 48 26 63 34 WNW 1002,5
15.01.2019 03:00:00 9,2 5,8 52 28 76 41 WNW 1002,5
15.01.2019 02:00:00 9,6 8,5 48 26 68 37 W 1001,9
15.01.2019 01:00:00 9,6 8,6 52 28 68 37 WSW 1002,1
15.01.2019 00:00:00 9,1 7,9 50 27 67 36 WSW 1002,5
14.01.2019 23:00:00 8,9 7,6 44 24 59 32 WSW 1003,7
14.01.2019 22:00:00 8,7 7,3 41 22 57 31 WSW 1004,7
14.01.2019 21:00:00 8,4 6,9 39 21 55 30 SW 1005,7
14.01.2019 20:00:00 8,2 6,8 41 22 55 30 WSW 1007,1
14.01.2019 19:00:00 7,3 5,5 29 16 48 26 WSW 1008,5
14.01.2019 18:00:00 7,5 5,0 28 15 - - W 1009,7
14.01.2019 17:00:00 7,5 3,7 31 17 - - W 1010,5
14.01.2019 16:00:00 7,3 2,4 39 21 52 28 W 1011,1
14.01.2019 15:00:00 7,5 2,0 35 19 54 29 WNW 1011,3
14.01.2019 14:00:00 7,3 2,3 35 19 57 31 WNW 1011,9
14.01.2019 13:00:00 6,9 1,4 41 22 55 30 WNW 1011,9
14.01.2019 12:00:00 6,7 3,1 31 17 68 37 W 1012,3
14.01.2019 11:00:00 5,9 3,2 44 24 59 32 WSW 1012,9
14.01.2019 10:00:00 5,9 1,4 35 19 46 25 SW 1013,3
14.01.2019 09:00:00 5,5 -0,1 24 13 - - SW 1013,9
14.01.2019 08:00:00 5,0 -2,1 21 11 - - WSW 1014,3
14.01.2019 07:00:00 4,9 -0,8 15 8 - - WNW 1014,9
14.01.2019 06:00:00 4,7 -0,5 22 12 - - NW 1015,1
14.01.2019 05:00:00 4,4 -0,4 22 12 46 25 NNW 1015,1
14.01.2019 04:00:00 4,8 -1,4 31 17 - - NW 1015,3
14.01.2019 03:00:00 4,7 -2,3 31 17 52 28 NNW 1014,9
14.01.2019 02:00:00 4,6 -1,4 39 21 50 27 NNW 1014,5
14.01.2019 01:00:00 3,6 -0,9 42 23 55 30 NNW 1014,3
14.01.2019 00:00:00 4,5 -0,7 34 18 46 25 N 1013,5
13.01.2019 23:00:00 4,5 -0,5 24 13 - - N 1012,9
13.01.2019 22:00:00 4,1 0,0 34 18 46 25 N 1011,7
13.01.2019 21:00:00 3,6 -0,3 39 21 54 29 NNE 1010,7
13.01.2019 20:00:00 3,8 0,4 42 23 57 31 NNE 1009,3
13.01.2019 19:00:00 3,8 1,1 46 25 59 32 NE 1007,3
13.01.2019 18:00:00 4,6 2,1 44 24 59 32 NE 1004,7
13.01.2019 17:00:00 5,3 2,5 37 20 61 33 NE 1002,5
13.01.2019 16:00:00 7,5 4,4 41 22 67 36 NW 1000,5
13.01.2019 15:00:00 8,2 4,4 50 27 72 39 NW 999,5
13.01.2019 14:00:00 7,9 4,2 54 29 72 39 WNW 999,1
13.01.2019 13:00:00 8,5 4,9 48 26 83 45 WNW 998,5
13.01.2019 12:00:00 8,4 5,0 50 27 76 41 WNW 998,5
13.01.2019 11:00:00 8,5 4,9 55 30 76 41 WNW 998,1
13.01.2019 10:00:00 9,0 4,8 57 31 80 43 WNW 997,8
13.01.2019 09:00:00 8,7 5,7 50 27 85 46 WNW 997,5
13.01.2019 08:00:00 8,5 5,4 57 31 80 43 WNW 996,6
13.01.2019 07:00:00 7,5 4,3 63 34 91 49 WNW 996,9
13.01.2019 06:00:00 9,1 6,0 63 34 83 45 WNW 996,8
13.01.2019 05:00:00 9,1 7,1 55 30 83 45 WNW 997,2
13.01.2019 04:00:00 9,4 7,7 59 32 80 43 WNW 997,6
13.01.2019 03:00:00 9,4 8,2 55 30 81 44 W 998,4
13.01.2019 02:00:00 9,4 8,4 57 31 74 40 WNW 999,0
13.01.2019 01:00:00 9,6 8,6 54 29 68 37 W 999,8
13.01.2019 00:00:00 9,7 8,7 52 28 72 39 W 1000,2
12.01.2019 23:00:00 9,7 8,7 48 26 72 39 W 1000,6
12.01.2019 22:00:00 9,6 8,6 52 28 70 38 W 1001,5
12.01.2019 21:00:00 9,6 8,6 48 26 65 35 W 1002,1
12.01.2019 20:00:00 9,4 8,4 39 21 57 31 W 1003,1
12.01.2019 19:00:00 9,4 8,3 39 21 52 28 W 1004,3
12.01.2019 18:00:00 8,8 7,5 34 18 52 28 WNW 1005,1
12.01.2019 17:00:00 8,6 7,0 37 20 54 29 WNW 1005,5
12.01.2019 16:00:00 8,5 6,3 41 22 54 29 WNW 1006,1
12.01.2019 15:00:00 8,7 6,3 41 22 61 33 WNW 1006,5
12.01.2019 14:00:00 8,7 6,4 46 25 65 35 W 1006,9
12.01.2019 13:00:00 8,9 6,7 50 27 68 37 WNW 1007,1
12.01.2019 12:00:00 8,2 5,8 54 29 76 41 WNW 1007,1

tt = Température de l'air
td = dewpoint
ff = Vitesse du vent
fx = gusts
dd = Direction du vent
ppp = reduced air pressure

stations d'obs. à proximité